Time;durP1;ratioP1;P1;durP2;ratioP2;P2;SDS_P1;SDS_P2;PMS_P1;PMS_P2;Temp;Humidity;BMP_temperature;BMP_pressure;BME280_temperature;BME280_humidity;BME280_pressure;Samples;Min_cycle;Max_cycle;Signal;HPM_P1;HPM_P2
2021/08/26 00:00:17;;;;;;;8.83;4.47;;;;;;;15.28;62.74;99456.91;2141375;82;21074;-85
2021/08/26 00:06:38;;;;;;;6.58;4.67;;;;;;;15.29;63.16;99460.72;2155661;82;21101;-86
2021/08/26 00:09:39;;;;;;;6.95;4.20;;;;;;;15.28;63.60;99460.91;2146290;80;21113;-87
2021/08/26 00:12:40;;;;;;;7.20;4.03;;;;;;;15.23;64.06;99450.36;2149702;81;21017;-87
2021/08/26 00:15:45;;;;;;;7.12;4.40;;;;;;;15.14;63.99;99450.80;2151075;80;21035;-88
2021/08/26 00:18:47;;;;;;;8.58;4.33;;;;;;;15.08;64.37;99452.47;2143203;81;21020;-86
2021/08/26 00:21:48;;;;;;;10.08;3.70;;;;;;;15.00;64.66;99444.17;2147671;81;21005;-87
2021/08/26 00:24:49;;;;;;;7.53;3.62;;;;;;;14.89;65.18;99446.16;2143013;82;21035;-87
2021/08/26 00:27:50;;;;;;;7.50;4.62;;;;;;;14.77;65.57;99433.98;2151051;81;21014;-89
2021/08/26 00:30:52;;;;;;;8.45;4.50;;;;;;;14.65;65.73;99430.86;2151607;82;21501;-87
2021/08/26 00:33:53;;;;;;;8.30;4.47;;;;;;;14.63;66.15;99420.38;2144854;82;21552;-87
2021/08/26 00:36:54;;;;;;;8.63;4.60;;;;;;;14.61;66.33;99415.75;2141111;81;20978;-85
2021/08/26 00:39:55;;;;;;;6.17;4.30;;;;;;;14.61;66.65;99406.41;2138124;82;21059;-86
2021/08/26 00:42:59;;;;;;;11.28;4.33;;;;;;;14.60;66.96;99411.45;2146015;81;20951;-87
2021/08/26 00:46:00;;;;;;;8.08;4.30;;;;;;;14.59;67.16;99395.66;2148966;82;21054;-87
2021/08/26 00:49:05;;;;;;;8.25;5.03;;;;;;;14.59;67.44;99387.66;2148515;81;21001;-87
2021/08/26 00:52:13;;;;;;;7.15;4.40;;;;;;;14.57;67.96;99383.84;2149623;82;21077;-86
2021/08/26 00:55:14;;;;;;;10.50;4.42;;;;;;;14.53;68.14;99379.45;2154156;81;21045;-87
2021/08/26 00:58:15;;;;;;;6.65;4.30;;;;;;;14.48;68.36;99374.41;2151926;80;21524;-86
2021/08/26 01:01:29;;;;;;;5.40;3.72;;;;;;;14.42;68.45;99369.39;2187771;80;21419;-86
2021/08/26 01:04:50;;;;;;;9.73;5.05;;;;;;;14.39;68.59;99364.48;2194365;80;21001;-85
2021/08/26 01:08:08;;;;;;;7.12;4.80;;;;;;;14.34;69.03;99356.27;2179225;80;21523;-86
2021/08/26 01:11:11;;;;;;;8.13;5.00;;;;;;;14.32;69.19;99362.33;2188832;80;20997;-87
2021/08/26 01:14:14;;;;;;;9.60;4.72;;;;;;;14.28;69.59;99357.93;2190088;80;21026;-87
2021/08/26 01:17:24;;;;;;;9.23;4.47;;;;;;;14.24;69.78;99359.88;2194911;80;21002;-85
2021/08/26 01:20:25;;;;;;;8.50;4.67;;;;;;;14.24;70.04;99362.03;2173445;80;21046;-87
2021/08/26 01:23:32;;;;;;;8.00;4.85;;;;;;;14.24;70.30;99359.88;2187872;80;20978;-86
2021/08/26 01:26:36;;;;;;;8.55;4.90;;;;;;;14.26;70.52;99357.31;2193399;80;21054;-87
2021/08/26 01:29:40;;;;;;;7.75;4.65;;;;;;;14.22;70.60;99359.26;2178412;79;21568;-87
2021/08/26 01:32:43;;;;;;;6.87;4.92;;;;;;;14.17;70.82;99353.75;2198142;80;21003;-87
2021/08/26 01:35:47;;;;;;;6.65;4.72;;;;;;;14.15;71.03;99353.14;2185141;80;21014;-87
2021/08/26 01:38:50;;;;;;;6.75;4.95;;;;;;;14.14;71.12;99350.98;2182482;80;21727;-86
2021/08/26 01:41:54;;;;;;;8.40;5.25;;;;;;;14.15;71.39;99353.14;2192207;80;21500;-86
2021/08/26 01:44:57;;;;;;;8.25;4.65;;;;;;;14.14;71.64;99353.66;2191277;80;21065;-87
2021/08/26 01:47:58;;;;;;;9.90;5.90;;;;;;;14.14;71.65;99356.33;2187095;80;21054;-87
2021/08/26 01:50:59;;;;;;;9.78;5.00;;;;;;;14.12;71.80;99345.03;2169861;80;21484;-87
2021/08/26 01:54:01;;;;;;;9.38;4.83;;;;;;;14.10;72.04;99347.08;2192158;79;21592;-86
2021/08/26 01:57:03;;;;;;;8.20;5.58;;;;;;;14.05;72.25;99346.39;2190912;80;21544;-87
2021/08/26 02:00:08;;;;;;;8.65;5.53;;;;;;;14.05;72.52;99349.55;2185076;80;21039;-86
2021/08/26 02:03:09;;;;;;;10.95;5.10;;;;;;;14.02;72.65;99341.97;2187232;80;21041;-87
2021/08/26 02:06:10;;;;;;;9.33;5.78;;;;;;;14.02;72.91;99333.96;2187774;80;21046;-87
2021/08/26 02:09:11;;;;;;;8.03;5.17;;;;;;;14.01;73.28;99341.67;2195239;80;20974;-88
2021/08/26 02:12:12;;;;;;;10.32;5.15;;;;;;;13.96;73.44;99323.61;2177711;80;21007;-85
2021/08/26 02:15:16;;;;;;;12.53;5.70;;;;;;;13.93;73.56;99325.36;2185068;79;21908;-87
2021/08/26 02:18:17;;;;;;;13.38;5.65;;;;;;;13.90;73.89;99318.59;2181880;80;21446;-86
2021/08/26 02:21:18;;;;;;;10.90;5.45;;;;;;;13.85;74.05;99319.75;2191520;80;21042;-85
2021/08/26 02:24:19;;;;;;;9.38;6.00;;;;;;;13.83;74.36;99316.47;2190633;80;21010;-87
2021/08/26 02:27:20;;;;;;;9.08;5.87;;;;;;;13.79;74.58;99309.08;2184948;80;21504;-86
2021/08/26 02:30:21;;;;;;;9.50;5.85;;;;;;;13.75;75.05;99315.34;2177079;80;20995;-89
2021/08/26 02:33:22;;;;;;;10.65;6.08;;;;;;;13.74;75.06;99304.88;2187330;80;21025;-86
2021/08/26 02:36:24;;;;;;;10.75;6.35;;;;;;;13.71;75.45;99300.77;2172272;80;21002;-87
2021/08/26 02:39:26;;;;;;;9.13;6.78;;;;;;;13.67;75.78;99296.38;2188038;80;21018;-87
2021/08/26 02:42:27;;;;;;;9.80;6.62;;;;;;;13.65;76.09;99298.42;2189961;80;21469;-87
2021/08/26 02:45:28;;;;;;;14.63;6.90;;;;;;;13.64;76.09;99302.13;2181040;80;21301;-86
2021/08/26 02:48:29;;;;;;;10.55;7.00;;;;;;;13.68;76.51;99299.37;2192377;80;20951;-86
2021/08/26 02:51:31;;;;;;;10.53;6.92;;;;;;;13.68;76.57;99303.86;2164883;80;20991;-86
2021/08/26 02:54:32;;;;;;;11.78;7.33;;;;;;;13.68;76.71;99307.85;2184336;80;21022;-88
2021/08/26 02:57:33;;;;;;;9.78;6.95;;;;;;;13.72;76.85;99299.77;2194357;80;21081;-86
2021/08/26 03:00:34;;;;;;;10.53;7.50;;;;;;;13.74;76.99;99303.05;2193124;80;21468;-87
2021/08/26 03:03:35;;;;;;;17.10;7.22;;;;;;;13.73;77.09;99291.25;2189287;80;21007;-86
2021/08/26 03:06:36;;;;;;;13.08;8.25;;;;;;;13.74;77.29;99287.55;2189061;80;20998;-86
2021/08/26 03:09:37;;;;;;;9.65;7.00;;;;;;;13.73;77.45;99290.73;2193062;80;21535;-87
2021/08/26 03:12:38;;;;;;;10.05;7.45;;;;;;;13.71;77.55;99290.11;2194363;80;20991;-86
2021/08/26 03:15:39;;;;;;;11.73;7.65;;;;;;;13.67;77.89;99288.90;2177347;80;21046;-85
2021/08/26 03:18:40;;;;;;;11.40;7.45;;;;;;;13.68;78.19;99285.20;2202234;80;21077;-86
2021/08/26 03:21:41;;;;;;;10.85;7.67;;;;;;;13.68;78.18;99280.70;2177569;80;20998;-86
2021/08/26 03:24:42;;;;;;;11.22;8.00;;;;;;;13.66;78.46;99282.75;2188890;80;20991;-88
2021/08/26 03:27:44;;;;;;;14.10;8.13;;;;;;;13.63;78.53;99269.03;2190128;80;20987;-86
2021/08/26 03:30:45;;;;;;;9.93;6.87;;;;;;;13.61;78.85;99269.22;2183692;80;21008;-85
2021/08/26 03:33:46;;;;;;;11.45;7.70;;;;;;;13.59;78.92;99271.27;2179506;80;20970;-86
2021/08/26 03:36:47;;;;;;;14.45;8.03;;;;;;;13.60;79.19;99269.41;2192503;80;21014;-85
2021/08/26 03:39:48;;;;;;;8.43;7.00;;;;;;;13.60;79.42;99275.59;2185857;80;21018;-86
2021/08/26 03:42:49;;;;;;;11.40;7.92;;;;;;;13.60;79.41;99272.08;2193991;80;21014;-86
2021/08/26 03:45:50;;;;;;;10.08;7.87;;;;;;;13.60;79.98;99273.41;2192863;80;21002;-86
2021/08/26 03:48:51;;;;;;;9.63;7.47;;;;;;;13.58;79.65;99272.30;2195877;80;21058;-87
2021/08/26 03:51:53;;;;;;;12.28;7.95;;;;;;;13.60;79.67;99263.59;2192933;79;21552;-85
2021/08/26 03:54:54;;;;;;;10.63;8.00;;;;;;;13.61;79.75;99271.89;2179833;80;21117;-86
2021/08/26 03:57:55;;;;;;;10.43;8.18;;;;;;;13.64;79.90;99259.99;2188478;80;21077;-86
2021/08/26 04:00:57;;;;;;;13.20;8.50;;;;;;;13.64;79.97;99265.33;2192299;79;21082;-86
2021/08/26 04:03:58;;;;;;;11.78;8.80;;;;;;;13.64;80.05;99258.14;2183441;80;20971;-87
2021/08/26 04:06:59;;;;;;;11.85;8.45;;;;;;;13.64;80.15;99259.99;2187388;80;21026;-85
2021/08/26 04:10:00;;;;;;;12.82;8.90;;;;;;;13.66;80.16;99257.95;2171432;80;21473;-86
2021/08/26 04:13:01;;;;;;;12.15;8.63;;;;;;;13.66;80.29;99256.09;2184309;80;21073;-85
2021/08/26 04:16:02;;;;;;;12.73;9.40;;;;;;;13.68;80.32;99258.54;2187348;80;21011;-87
2021/08/26 04:19:04;;;;;;;12.60;9.15;;;;;;;13.70;80.99;99255.68;2178585;80;21062;-86
2021/08/26 04:22:05;;;;;;;11.45;8.85;;;;;;;13.70;80.50;99252.49;2191035;80;21042;-85
2021/08/26 04:25:08;;;;;;;11.57;9.18;;;;;;;13.70;80.47;99257.83;2193791;80;21034;-86
2021/08/26 04:28:10;;;;;;;13.95;8.95;;;;;;;13.70;80.73;99254.34;2187573;80;21007;-86
2021/08/26 04:31:11;;;;;;;13.85;8.95;;;;;;;13.70;80.71;99255.68;2197292;80;20994;-87
2021/08/26 04:34:12;;;;;;;12.95;9.55;;;;;;;13.72;80.67;99254.45;2186732;80;20990;-86
2021/08/26 04:37:13;;;;;;;13.18;9.48;;;;;;;13.74;80.69;99248.89;2192432;80;21501;-84
2021/08/26 04:40:14;;;;;;;12.37;9.45;;;;;;;13.74;80.79;99246.22;2181234;80;20995;-89
2021/08/26 04:43:15;;;;;;;14.07;9.95;;;;;;;13.75;80.82;99249.22;2190199;80;21010;-85
2021/08/26 04:46:16;;;;;;;14.03;9.80;;;;;;;13.78;80.90;99249.61;2197000;80;21078;-86
2021/08/26 04:49:18;;;;;;;12.93;8.98;;;;;;;13.79;80.96;99251.75;2192351;80;21057;-85
2021/08/26 04:52:19;;;;;;;13.03;9.38;;;;;;;13.79;80.94;99247.23;2188665;80;21030;-86
2021/08/26 04:55:20;;;;;;;12.13;8.75;;;;;;;13.81;81.00;99246.52;2189858;80;21046;-87
2021/08/26 04:58:21;;;;;;;12.35;9.35;;;;;;;13.82;81.05;99254.00;2191555;80;21525;-86
2021/08/26 05:01:22;;;;;;;14.90;9.38;;;;;;;13.84;81.14;99251.44;2197102;80;21500;-86
2021/08/26 05:04:24;;;;;;;12.20;8.90;;;;;;;13.85;81.12;99249.09;2188959;80;21014;-86
2021/08/26 05:07:25;;;;;;;11.40;8.60;;;;;;;13.90;81.16;99247.92;2188167;80;21507;-86
2021/08/26 05:10:26;;;;;;;10.72;8.70;;;;;;;13.93;81.20;99234.69;2183632;80;22620;-87
2021/08/26 05:13:28;;;;;;;12.82;8.90;;;;;;;13.98;81.18;99236.73;2192719;80;21042;-86
2021/08/26 05:16:29;;;;;;;13.32;10.03;;;;;;;13.99;81.21;99237.03;2174889;80;21584;-86
2021/08/26 05:19:30;;;;;;;12.58;9.65;;;;;;;14.01;81.32;99233.13;2187325;80;21034;-87
2021/08/26 05:22:32;;;;;;;12.28;9.00;;;;;;;14.03;81.34;99234.27;2184182;80;20990;-85
2021/08/26 05:25:36;;;;;;;12.40;8.20;;;;;;;14.05;81.35;99230.36;2190101;80;21113;-85
2021/08/26 05:28:37;;;;;;;11.70;8.55;;;;;;;14.11;81.39;99232.18;2187971;80;20979;-86
2021/08/26 05:31:39;;;;;;;11.65;7.35;;;;;;;14.15;81.29;99233.09;2194031;80;21560;-87
2021/08/26 05:34:41;;;;;;;12.18;8.35;;;;;;;14.18;81.25;99220.66;2196581;80;21010;-85
2021/08/26 05:37:43;;;;;;;12.07;8.33;;;;;;;14.23;81.30;99238.19;2180868;80;21018;-86
2021/08/26 05:40:44;;;;;;;11.55;7.95;;;;;;;14.25;81.31;99232.95;2189815;80;20974;-86
2021/08/26 05:43:45;;;;;;;13.48;7.60;;;;;;;14.29;81.31;99228.81;2190755;80;21006;-87
2021/08/26 05:46:46;;;;;;;11.35;8.45;;;;;;;14.41;81.49;99240.15;2186789;80;21496;-86
2021/08/26 05:49:47;;;;;;;10.15;7.12;;;;;;;14.54;81.43;99230.26;2195740;80;20998;-86
2021/08/26 05:52:49;;;;;;;11.03;6.80;;;;;;;14.65;81.26;99239.44;2193232;80;21055;-86
2021/08/26 05:55:50;;;;;;;10.68;7.17;;;;;;;14.68;81.06;99227.00;2181353;80;20998;-87
2021/08/26 05:58:52;;;;;;;11.25;6.95;;;;;;;14.69;80.93;99227.80;2176662;79;21053;-86
2021/08/26 06:01:53;;;;;;;9.58;6.92;;;;;;;14.70;80.83;99233.47;2188953;80;21065;-87
2021/08/26 06:04:54;;;;;;;7.95;6.60;;;;;;;14.70;80.80;99239.63;2173840;80;21039;-85
2021/08/26 06:07:56;;;;;;;10.40;6.42;;;;;;;14.69;80.83;99239.30;2186923;80;21041;-86
2021/08/26 06:10:57;;;;;;;8.80;7.22;;;;;;;14.69;81.00;99249.16;2182141;80;20987;-87
2021/08/26 06:13:58;;;;;;;7.15;5.62;;;;;;;14.73;81.10;99239.19;2183743;80;21522;-86
2021/08/26 06:16:59;;;;;;;6.62;5.45;;;;;;;14.72;80.88;99226.85;2191605;80;21054;-86
2021/08/26 06:20:04;;;;;;;8.33;5.20;;;;;;;14.73;80.93;99232.52;2183279;80;21014;-85
2021/08/26 06:23:05;;;;;;;8.10;4.92;;;;;;;14.75;81.07;99234.46;2186507;80;20991;-87
2021/08/26 06:26:06;;;;;;;7.78;5.30;;;;;;;14.82;80.91;99228.25;2187492;80;21022;-86
2021/08/26 06:29:07;;;;;;;7.55;4.92;;;;;;;14.90;80.72;99230.14;2193347;80;20971;-86
2021/08/26 06:32:08;;;;;;;6.83;4.97;;;;;;;14.94;80.55;99234.52;2189212;80;21552;-86
2021/08/26 06:35:11;;;;;;;7.25;4.83;;;;;;;14.96;80.52;99233.28;2186582;80;21507;-86
2021/08/26 06:38:12;;;;;;;6.70;4.10;;;;;;;15.01;80.59;99237.45;2187558;80;21069;-87
2021/08/26 06:41:13;;;;;;;6.67;4.10;;;;;;;15.07;80.50;99233.09;2189682;80;21529;-87
2021/08/26 06:44:15;;;;;;;5.15;3.98;;;;;;;15.16;80.35;99234.98;2182161;79;21054;-86
2021/08/26 06:47:16;;;;;;;6.42;3.85;;;;;;;15.24;80.23;99234.19;2185140;80;21556;-86
2021/08/26 06:50:17;;;;;;;6.90;4.05;;;;;;;15.27;80.00;99239.62;2191368;80;21042;-86
2021/08/26 06:53:18;;;;;;;5.85;3.83;;;;;;;15.29;79.88;99238.05;2183774;80;21026;-87
2021/08/26 06:56:19;;;;;;;5.78;3.70;;;;;;;15.29;79.69;99230.87;2190272;80;21034;-87
2021/08/26 06:59:20;;;;;;;5.92;4.42;;;;;;;15.30;79.64;99225.00;2187032;80;20979;-85
2021/08/26 07:02:22;;;;;;;4.75;3.00;;;;;;;15.30;79.61;99223.14;2177562;80;21517;-86
2021/08/26 07:05:23;;;;;;;4.05;2.87;;;;;;;15.29;79.47;99218.00;2142843;81;21469;-86
2021/08/26 07:08:24;;;;;;;4.78;3.02;;;;;;;15.28;79.29;99212.37;2126412;82;20983;-86
2021/08/26 07:11:25;;;;;;;5.05;3.50;;;;;;;15.30;79.28;99220.99;2135879;82;20981;-85
2021/08/26 07:14:26;;;;;;;6.03;3.70;;;;;;;15.30;79.21;99218.32;2126709;82;21517;-87
2021/08/26 07:17:28;;;;;;;5.70;3.02;;;;;;;15.32;79.16;99217.59;2149305;80;21473;-87
2021/08/26 07:20:30;;;;;;;5.20;3.00;;;;;;;15.39;79.16;99215.13;2143572;80;21006;-88
2021/08/26 07:23:31;;;;;;;6.67;2.62;;;;;;;15.51;79.12;99201.05;2171175;80;21099;-86
2021/08/26 07:26:32;;;;;;;4.17;3.00;;;;;;;15.61;79.08;99218.22;2178468;80;21471;-86
2021/08/26 07:29:33;;;;;;;6.05;3.42;;;;;;;15.77;79.04;99212.00;2172093;80;21051;-86
2021/08/26 07:32:34;;;;;;;4.50;3.55;;;;;;;16.21;79.07;99216.75;2168111;80;20978;-87
2021/08/26 07:35:36;;;;;;;6.08;3.83;;;;;;;16.54;77.94;99210.96;2177840;80;21427;-87
2021/08/26 07:38:37;;;;;;;6.47;3.85;;;;;;;16.88;77.96;99217.49;2159824;80;21046;-86
2021/08/26 07:41:38;;;;;;;9.53;4.40;;;;;;;17.36;76.90;99220.52;2169143;80;21037;-87
2021/08/26 07:44:39;;;;;;;6.53;4.28;;;;;;;17.88;76.09;99214.47;2166097;80;21039;-86
2021/08/26 07:47:40;;;;;;;5.47;4.75;;;;;;;18.14;75.18;99214.45;2142792;80;21041;-87
2021/08/26 07:50:41;;;;;;;9.03;4.17;;;;;;;18.05;73.72;99215.89;2170633;80;21502;-87
2021/08/26 07:53:43;;;;;;;5.67;4.17;;;;;;;17.68;72.81;99218.81;2181605;80;21041;-86
2021/08/26 07:56:44;;;;;;;9.60;4.87;;;;;;;17.37;72.40;99219.99;2180409;79;21018;-87
2021/08/26 07:59:45;;;;;;;5.62;4.08;;;;;;;17.27;72.88;99217.09;2171763;80;21042;-88
2021/08/26 08:02:47;;;;;;;6.55;4.30;;;;;;;17.26;72.69;99210.92;2170203;81;21057;-86
2021/08/26 08:05:48;;;;;;;7.10;4.67;;;;;;;17.23;72.71;99215.37;2140907;82;21004;-86
2021/08/26 08:08:49;;;;;;;5.85;4.67;;;;;;;17.27;72.38;99211.73;2132518;82;20991;-87
2021/08/26 08:11:51;;;;;;;5.75;4.30;;;;;;;17.60;72.55;99210.62;2127852;82;21017;-87
2021/08/26 08:14:52;;;;;;;5.58;4.62;;;;;;;17.83;71.92;99199.60;2145647;81;21041;-87
2021/08/26 08:17:53;;;;;;;6.42;4.62;;;;;;;18.38;70.85;99197.19;2158151;81;21014;-87
2021/08/26 08:20:54;;;;;;;7.97;4.12;;;;;;;18.50;69.92;99193.63;2135837;82;21031;-85
2021/08/26 08:23:55;;;;;;;5.33;4.10;;;;;;;18.67;70.26;99196.36;2167887;81;20999;-86
2021/08/26 08:26:58;;;;;;;7.25;4.42;;;;;;;18.77;69.42;99189.32;2168630;80;21065;-86
2021/08/26 08:29:59;;;;;;;6.30;4.17;;;;;;;18.78;68.72;99183.41;2158728;81;20996;-88
2021/08/26 08:33:00;;;;;;;5.40;4.28;;;;;;;19.12;69.16;99190.14;2169296;81;21033;-88
2021/08/26 08:36:01;;;;;;;5.45;3.80;;;;;;;19.29;68.02;99191.47;2168930;81;20979;-87
2021/08/26 08:39:03;;;;;;;7.20;3.75;;;;;;;19.57;67.11;99183.81;2162074;80;20977;-87
2021/08/26 08:42:05;;;;;;;4.85;3.40;;;;;;;19.85;66.89;99181.01;2163470;81;21026;-87
2021/08/26 08:45:08;;;;;;;5.20;4.00;;;;;;;19.79;66.52;99181.17;2160301;81;21085;-88
2021/08/26 08:48:10;;;;;;;8.05;4.25;;;;;;;19.76;66.30;99177.10;2152155;81;21018;-86
2021/08/26 08:51:12;;;;;;;5.58;3.75;;;;;;;19.65;65.99;99177.53;2125287;82;21015;-86
2021/08/26 08:54:13;;;;;;;5.97;4.15;;;;;;;19.58;65.85;99187.61;2155949;81;21284;-87
2021/08/26 08:57:14;;;;;;;5.97;3.75;;;;;;;19.41;65.56;99178.23;2159295;81;21422;-86
2021/08/26 09:00:19;;;;;;;8.30;3.95;;;;;;;19.42;65.35;99175.81;2131470;81;21498;-87
2021/08/26 09:03:20;;;;;;;5.00;3.75;;;;;;;19.82;65.99;99176.13;2135783;82;21073;-87
2021/08/26 09:06:22;;;;;;;7.08;4.17;;;;;;;20.56;65.79;99171.58;2133008;82;21569;-88
2021/08/26 09:09:23;;;;;;;4.35;3.72;;;;;;;20.78;63.06;99183.64;2127370;82;20973;-86
2021/08/26 09:12:45;;;;;;;5.03;3.87;;;;;;;19.99;62.13;99188.18;2137539;82;21067;-86
2021/08/26 09:15:47;;;;;;;5.80;4.42;;;;;;;19.30;62.86;99187.20;2126870;82;21034;-85
2021/08/26 09:18:48;;;;;;;5.15;3.80;;;;;;;18.87;62.74;99181.16;2132670;82;21071;-87
2021/08/26 09:21:50;;;;;;;6.53;4.10;;;;;;;18.34;63.82;99186.66;2129956;82;21527;-87
2021/08/26 09:24:52;;;;;;;12.10;4.50;;;;;;;18.06;64.91;99186.11;2130719;82;21592;-85
2021/08/26 09:27:53;;;;;;;6.00;4.20;;;;;;;18.53;66.38;99187.81;2125162;82;20997;-86
2021/08/26 09:31:18;;;;;;;8.78;4.90;;;;;;;18.83;65.86;99177.31;2132952;82;21441;-87
2021/08/26 09:34:19;;;;;;;5.78;5.03;;;;;;;18.79;65.20;99181.84;2137409;82;21038;-85
2021/08/26 09:37:21;;;;;;;6.22;4.92;;;;;;;18.96;65.69;99182.38;2128787;82;21002;-88
2021/08/26 09:40:25;;;;;;;8.48;6.00;;;;;;;19.14;65.42;99187.49;2128127;82;21122;-87
2021/08/26 09:43:32;;;;;;;8.90;6.20;;;;;;;19.16;64.00;99186.73;2133471;82;21046;-86
2021/08/26 09:46:35;;;;;;;8.03;6.37;;;;;;;19.09;64.12;99191.47;2133851;82;21090;-86
2021/08/26 09:49:40;;;;;;;9.03;5.97;;;;;;;18.93;64.48;99185.03;2129283;82;21497;-87
2021/08/26 09:52:52;;;;;;;10.68;6.47;;;;;;;18.84;64.50;99179.78;2128241;82;20996;-86
2021/08/26 09:56:01;;;;;;;7.55;6.40;;;;;;;18.72;64.35;99177.64;2125122;82;21030;-86
2021/08/26 09:59:04;;;;;;;7.72;5.87;;;;;;;18.65;64.75;99176.47;2127707;82;21085;-86
2021/08/26 10:02:06;;;;;;;7.72;6.67;;;;;;;18.92;65.45;99173.16;2153611;80;21530;-86
2021/08/26 10:05:09;;;;;;;9.15;6.45;;;;;;;19.13;64.88;99171.09;2171559;80;21533;-87
2021/08/26 10:08:12;;;;;;;7.10;6.30;;;;;;;19.06;64.44;99161.55;2175903;80;21036;-86
2021/08/26 10:11:20;;;;;;;8.18;6.00;;;;;;;18.98;64.51;99164.95;2170079;80;21016;-87
2021/08/26 10:14:21;;;;;;;6.30;5.55;;;;;;;18.83;64.71;99166.57;2192944;80;21152;-87
2021/08/26 10:17:23;;;;;;;9.18;6.55;;;;;;;18.75;64.96;99167.27;2174197;80;21069;-87
2021/08/26 10:20:25;;;;;;;8.68;6.10;;;;;;;18.85;65.26;99168.49;2160749;80;21035;-87
2021/08/26 10:23:27;;;;;;;7.25;5.97;;;;;;;19.45;65.32;99159.17;2177052;80;21548;-86
2021/08/26 10:26:30;;;;;;;8.73;4.72;;;;;;;19.64;64.16;99157.02;2166399;80;21485;-86
2021/08/26 10:29:34;;;;;;;5.90;5.30;;;;;;;19.52;63.47;99160.36;2161407;80;21112;-85
2021/08/26 10:32:35;;;;;;;7.45;5.33;;;;;;;19.33;63.79;99164.39;2166011;80;21044;-86
2021/08/26 10:35:59;;;;;;;6.30;5.00;;;;;;;18.92;64.33;99169.97;2168467;80;21038;-86
2021/08/26 10:39:12;;;;;;;6.03;4.60;;;;;;;18.56;64.92;99175.23;2155045;80;20983;-87
2021/08/26 10:42:40;;;;;;;5.80;4.15;;;;;;;18.18;65.43;99173.17;2165504;80;21624;-87
2021/08/26 10:45:51;;;;;;;7.55;4.17;;;;;;;18.00;65.78;99182.23;2174750;80;21493;-85
2021/08/26 10:49:01;;;;;;;4.10;3.02;;;;;;;17.78;66.20;99177.99;2179285;80;21022;-87
2021/08/26 10:52:02;;;;;;;4.00;3.55;;;;;;;17.53;66.15;99182.28;2174698;80;21022;-87
2021/08/26 10:55:05;;;;;;;4.65;3.62;;;;;;;17.34;66.60;99181.05;2160510;80;21010;-85
2021/08/26 10:58:28;;;;;;;5.15;4.03;;;;;;;17.37;67.07;99178.44;2171897;80;21070;-86
2021/08/26 11:01:38;;;;;;;5.30;3.40;;;;;;;17.58;67.56;99175.69;2161685;80;21070;-86
2021/08/26 11:04:39;;;;;;;3.85;3.40;;;;;;;18.18;67.56;99160.56;2157064;81;21585;-86
2021/08/26 11:07:40;;;;;;;5.15;3.80;;;;;;;18.69;67.28;99154.75;2148788;82;21042;-85
2021/08/26 11:10:42;;;;;;;2.87;2.58;;;;;;;19.20;67.19;99152.92;2161149;81;21479;-86
2021/08/26 11:13:43;;;;;;;3.98;3.25;;;;;;;19.72;66.72;99154.45;2154941;82;21010;-86
2021/08/26 11:16:47;;;;;;;3.40;2.72;;;;;;;20.10;65.62;99148.19;2164063;81;21037;-87
2021/08/26 11:19:48;;;;;;;4.12;2.72;;;;;;;20.26;65.04;99151.84;2152254;81;20977;-86
2021/08/26 11:23:06;;;;;;;3.45;1.95;;;;;;;20.49;64.26;99153.95;2151816;82;20968;-86
2021/08/26 11:26:47;;;;;;;2.75;2.20;;;;;;;20.48;62.18;99162.57;2151437;82;21006;-86
2021/08/26 11:29:50;;;;;;;1.70;1.60;;;;;;;20.10;61.75;99161.66;2151812;81;20968;-87
2021/08/26 11:32:52;;;;;;;3.52;1.80;;;;;;;19.70;60.92;99166.80;2154377;81;20984;-86
2021/08/26 11:35:53;;;;;;;1.80;1.70;;;;;;;19.41;60.83;99162.09;2155083;81;21003;-87
2021/08/26 11:38:55;;;;;;;2.70;1.98;;;;;;;19.17;61.35;99160.65;2155190;80;21027;-87
2021/08/26 11:41:56;;;;;;;3.10;2.08;;;;;;;18.95;61.53;99169.98;2158194;81;21523;-87
2021/08/26 11:45:23;;;;;;;4.03;2.27;;;;;;;18.85;61.62;99157.20;2157620;80;21494;-87
2021/08/26 11:48:24;;;;;;;2.75;1.87;;;;;;;18.82;62.56;99167.11;2152027;82;21036;-86
2021/08/26 11:51:30;;;;;;;3.80;2.12;;;;;;;19.24;61.33;99171.53;2152703;82;21046;-86
2021/08/26 11:54:45;;;;;;;3.33;1.85;;;;;;;19.39;60.73;99168.77;2153770;82;21033;-86
2021/08/26 11:57:46;;;;;;;2.65;1.80;;;;;;;19.19;60.19;99171.45;2158037;82;21018;-86
2021/08/26 12:00:51;;;;;;;3.15;2.02;;;;;;;18.99;59.63;99176.52;2153838;81;21034;-86
2021/08/26 12:03:54;;;;;;;2.05;1.77;;;;;;;18.87;60.87;99175.79;2170690;79;21088;-86
2021/08/26 12:06:55;;;;;;;3.45;1.82;;;;;;;18.87;61.04;99172.57;2170332;81;20998;-86
2021/08/26 12:10:08;;;;;;;1.92;1.62;;;;;;;18.77;60.71;99172.39;2165919;80;21054;-87
2021/08/26 12:13:21;;;;;;;3.10;1.98;;;;;;;18.66;61.05;99175.92;2169504;80;21065;-87
2021/08/26 12:16:27;;;;;;;4.03;1.82;;;;;;;18.59;61.11;99177.44;2148530;80;21471;-87
2021/08/26 12:19:29;;;;;;;1.90;1.80;;;;;;;18.52;61.23;99188.84;2184586;80;20995;-86
2021/08/26 12:22:31;;;;;;;2.50;2.00;;;;;;;18.41;61.38;99187.03;2168405;80;21026;-87
2021/08/26 12:25:36;;;;;;;4.62;1.98;;;;;;;18.29;61.70;99183.05;2164881;80;21059;-86
2021/08/26 12:28:46;;;;;;;3.22;2.40;;;;;;;18.25;61.95;99192.13;2164875;80;21491;-85
2021/08/26 12:31:48;;;;;;;3.33;2.17;;;;;;;18.32;61.86;99194.13;2163024;79;21055;-86
2021/08/26 12:34:49;;;;;;;3.95;2.00;;;;;;;18.37;61.80;99194.23;2168263;80;21030;-87
2021/08/26 12:37:58;;;;;;;2.60;2.40;;;;;;;18.61;62.31;99187.39;2168976;80;21013;-86
2021/08/26 12:41:06;;;;;;;2.40;2.00;;;;;;;18.72;62.45;99187.05;2177305;80;21516;-85
2021/08/26 12:44:07;;;;;;;2.55;2.08;;;;;;;18.59;62.34;99196.24;2172208;80;21013;-88
2021/08/26 12:47:12;;;;;;;1.90;1.80;;;;;;;18.34;62.77;99197.39;2170927;80;21503;-86
2021/08/26 12:50:12;;;;;;;2.83;2.08;;;;;;;18.09;63.09;99202.27;2174252;80;21024;-87
2021/08/26 12:53:18;;;;;;;2.67;1.85;;;;;;;17.92;64.22;99204.34;2171658;80;21005;-85
2021/08/26 12:56:20;;;;;;;2.00;1.60;;;;;;;17.75;64.48;99208.79;2165211;80;20985;-87
2021/08/26 12:59:40;;;;;;;2.20;1.55;;;;;;;17.67;64.96;99211.83;2175276;80;21595;-88
2021/08/26 13:02:52;;;;;;;2.70;1.60;;;;;;;17.65;65.70;99214.77;2181357;80;21063;-87
2021/08/26 13:05:53;;;;;;;2.62;1.50;;;;;;;17.51;65.96;99217.89;2190720;80;21014;-87
2021/08/26 13:08:54;;;;;;;2.27;1.62;;;;;;;17.37;66.07;99219.49;2197510;79;21006;-87
2021/08/26 13:12:04;;;;;;;2.27;1.67;;;;;;;17.35;66.75;99221.58;2188928;80;20986;-87
2021/08/26 13:15:07;;;;;;;3.02;1.82;;;;;;;17.30;67.05;99223.33;2195698;79;21092;-87
2021/08/26 13:18:08;;;;;;;4.47;2.45;;;;;;;17.29;67.39;99229.72;2191413;80;22447;-85
2021/08/26 13:21:09;;;;;;;2.62;2.00;;;;;;;17.17;68.04;99229.19;2180243;80;20967;-86
2021/08/26 13:24:11;;;;;;;2.52;1.92;;;;;;;16.84;65.57;99229.73;2189633;80;20955;-86
2021/08/26 13:27:12;;;;;;;4.20;1.90;;;;;;;16.52;66.08;99224.56;2185372;80;21054;-85
2021/08/26 13:30:14;;;;;;;3.92;2.12;;;;;;;16.40;66.52;99234.42;2187272;80;21493;-86
2021/08/26 13:33:15;;;;;;;6.37;2.30;;;;;;;16.41;66.82;99234.70;2176139;80;21022;-87
2021/08/26 13:36:17;;;;;;;6.87;2.72;;;;;;;16.47;67.08;99241.02;2185566;80;21489;-87
2021/08/26 13:39:18;;;;;;;2.55;2.15;;;;;;;16.50;66.95;99229.35;2181882;80;21073;-86
2021/08/26 13:42:20;;;;;;;3.85;2.02;;;;;;;16.56;66.89;99230.30;2186948;80;22056;-86
2021/08/26 13:45:21;;;;;;;2.92;1.90;;;;;;;16.58;66.32;99226.86;2195376;79;20990;-87
2021/08/26 13:48:22;;;;;;;3.92;1.85;;;;;;;16.66;66.29;99223.86;2199317;80;20979;-85
2021/08/26 13:51:24;;;;;;;3.85;1.85;;;;;;;16.82;66.15;99223.77;2188090;80;21578;-87
2021/08/26 13:54:26;;;;;;;3.85;1.77;;;;;;;16.97;65.63;99220.12;2177905;80;21006;-87
2021/08/26 13:57:27;;;;;;;2.70;1.80;;;;;;;17.07;65.68;99228.95;2187969;80;21006;-88
2021/08/26 14:00:29;;;;;;;3.52;2.02;;;;;;;17.03;65.58;99228.61;2188708;79;21493;-87
2021/08/26 14:03:30;;;;;;;5.45;2.20;;;;;;;16.91;65.35;99226.41;2168208;80;21053;-87
2021/08/26 14:06:33;;;;;;;4.53;1.70;;;;;;;16.88;65.60;99229.55;2137484;81;21536;-87
2021/08/26 14:09:34;;;;;;;2.30;1.72;;;;;;;16.80;65.64;99232.55;2141854;81;21042;-88
2021/08/26 14:12:35;;;;;;;3.85;1.67;;;;;;;16.84;65.57;99228.39;2147180;81;21038;-88
2021/08/26 14:15:37;;;;;;;4.25;1.92;;;;;;;16.98;65.41;99231.16;2137655;81;21121;-86
2021/08/26 14:18:38;;;;;;;2.65;1.82;;;;;;;17.15;65.31;99233.17;2151073;81;20986;-88
2021/08/26 14:21:39;;;;;;;3.27;1.67;;;;;;;17.27;65.26;99234.52;2148317;81;21030;-85